createdAt,value
2019-02-04T13:07:00.216Z,-4.30
2019-02-04T13:09:28.336Z,-4.30
2019-02-04T13:11:56.460Z,-4.30
2019-02-04T13:14:24.511Z,-4.30
2019-02-04T13:16:52.564Z,-4.30
2019-02-04T13:19:20.589Z,-4.30
2019-02-04T13:21:48.865Z,-4.40
2019-02-04T13:24:48.568Z,-4.40
2019-02-04T13:27:16.816Z,-4.50
2019-02-04T13:29:44.844Z,-4.50
2019-02-04T13:32:13.280Z,-4.60
2019-02-04T13:34:41.368Z,-4.60
2019-02-04T13:37:09.404Z,-4.60
2019-02-04T13:39:37.451Z,-4.60
2019-02-04T13:42:05.620Z,-4.50
2019-02-04T13:44:33.639Z,-4.50
2019-02-04T13:47:02.363Z,-4.40
2019-02-04T13:49:31.875Z,-4.40
2019-02-04T13:51:59.957Z,-4.40
2019-02-04T13:54:27.998Z,-4.30
2019-02-04T13:56:56.175Z,-4.30
2019-02-04T13:59:24.555Z,-4.30
2019-02-04T14:01:52.909Z,-4.30
2019-02-04T14:04:21.101Z,-4.30
2019-02-04T14:06:49.423Z,-4.30
2019-02-04T14:09:19.200Z,-4.40
2019-02-04T14:11:47.253Z,-4.40
2019-02-04T14:14:15.448Z,-4.40
2019-02-04T14:16:43.412Z,-4.40
2019-02-04T14:19:11.465Z,-4.40
2019-02-04T14:21:39.602Z,-4.40
2019-02-04T14:24:07.649Z,-4.40
2019-02-04T14:26:35.721Z,-4.40
2019-02-04T14:29:03.783Z,-4.40
2019-02-04T14:31:31.986Z,-4.40
2019-02-04T14:34:00.249Z,-4.40
2019-02-04T14:36:28.323Z,-4.40
2019-02-04T14:38:56.782Z,-4.40
2019-02-04T14:41:25.033Z,-4.40
2019-02-04T14:43:57.400Z,-4.40
2019-02-04T14:47:08.579Z,-4.30
2019-02-04T14:50:10.028Z,-4.30
2019-02-04T14:53:30.657Z,-4.30
2019-02-04T14:56:20.000Z,-4.30
2019-02-04T14:59:21.892Z,-4.30
2019-02-04T15:02:33.364Z,-4.20
2019-02-04T15:05:48.425Z,-4.20
2019-02-04T15:09:06.345Z,-4.20
2019-02-04T15:12:00.075Z,-4.20
2019-02-04T15:15:25.375Z,-4.20
2019-02-04T15:18:39.496Z,-4.20
2019-02-04T15:21:47.821Z,-4.10
2019-02-04T15:24:49.813Z,-4.10
2019-02-04T15:27:49.905Z,-4.10
2019-02-04T15:30:59.248Z,-4.10
2019-02-04T15:33:53.266Z,-4.10
2019-02-04T15:36:58.713Z,-4.10
2019-02-04T15:40:07.912Z,-4.00
2019-02-04T15:43:09.237Z,-4.00
2019-02-04T15:45:49.501Z,-4.00
2019-02-04T15:48:35.360Z,-4.00
2019-02-04T15:51:31.677Z,-4.00
2019-02-04T15:54:02.301Z,-4.00
2019-02-04T15:56:30.610Z,-4.00
2019-02-04T15:58:58.722Z,-4.00
2019-02-04T16:01:26.671Z,-3.90
2019-02-04T16:03:54.765Z,-3.90
2019-02-04T16:06:22.829Z,-3.90
2019-02-04T16:08:51.001Z,-3.90
2019-02-04T16:11:19.241Z,-3.90
2019-02-04T16:13:47.305Z,-3.90
2019-02-04T16:16:15.508Z,-3.80
2019-02-04T16:18:43.485Z,-3.80
2019-02-04T16:21:11.607Z,-3.80
2019-02-04T16:23:39.637Z,-3.80
2019-02-04T16:26:07.833Z,-3.80
2019-02-04T16:28:35.784Z,-3.80
2019-02-04T16:31:04.047Z,-3.80
2019-02-04T16:33:31.971Z,-3.80
2019-02-04T16:36:00.012Z,-3.70
2019-02-04T16:38:28.051Z,-3.70
2019-02-04T16:40:56.372Z,-3.70
2019-02-04T16:43:24.472Z,-3.70
2019-02-04T16:45:52.508Z,-3.70
2019-02-04T16:48:20.580Z,-3.70
2019-02-04T16:51:03.439Z,-3.70
2019-02-04T16:53:18.596Z,-3.70
2019-02-04T16:55:46.712Z,-3.70
2019-02-04T16:58:14.765Z,-3.60
2019-02-04T17:00:42.780Z,-3.60
2019-02-04T17:03:10.836Z,-3.60
2019-02-04T17:05:39.073Z,-3.60
2019-02-04T17:08:07.792Z,-3.60
2019-02-04T17:10:35.854Z,-3.60
2019-02-04T17:13:04.402Z,-3.50
2019-02-04T17:15:32.511Z,-3.50
2019-02-04T17:18:00.769Z,-3.50
2019-02-04T17:20:30.929Z,-3.50
2019-02-04T17:22:59.092Z,-3.50
2019-02-04T17:25:27.201Z,-3.40
2019-02-04T17:27:55.309Z,-3.40
2019-02-04T17:30:23.824Z,-3.40
2019-02-04T17:32:51.880Z,-3.30
2019-02-04T17:35:20.040Z,-3.30
2019-02-04T17:37:48.239Z,-3.30
2019-02-04T17:40:18.340Z,-3.30
2019-02-04T17:42:46.295Z,-3.20
2019-02-04T17:45:15.069Z,-3.20
2019-02-04T17:47:43.540Z,-3.20
2019-02-04T17:50:12.867Z,-3.20
2019-02-04T17:52:40.914Z,-3.20
2019-02-04T17:55:12.388Z,-3.10
2019-02-04T17:57:40.448Z,-3.10
2019-02-04T18:00:22.947Z,-3.10
2019-02-04T18:02:50.969Z,-3.10
2019-02-04T18:05:18.929Z,-3.10
2019-02-04T18:07:46.947Z,-3.00
2019-02-04T18:10:15.119Z,-3.00
2019-02-04T18:12:43.148Z,-3.00
2019-02-04T18:15:13.921Z,-3.00
2019-02-04T18:17:42.132Z,-2.90
2019-02-04T18:20:11.788Z,-2.90
2019-02-04T18:22:39.884Z,-2.90
2019-02-04T18:25:08.976Z,-2.90
2019-02-04T18:27:37.101Z,-2.80
2019-02-04T18:30:07.054Z,-2.80
2019-02-04T18:32:35.071Z,-2.80
2019-02-04T18:35:04.368Z,-2.80
2019-02-04T18:37:32.443Z,-2.70
2019-02-04T18:40:00.578Z,-2.70
2019-02-04T18:42:28.775Z,-2.70
2019-02-04T18:44:56.866Z,-2.70
2019-02-04T18:47:24.940Z,-2.70
2019-02-04T18:49:52.990Z,-2.60
2019-02-04T18:52:21.095Z,-2.60
2019-02-04T18:54:49.258Z,-2.60
2019-02-04T18:57:17.856Z,-2.60
2019-02-04T18:59:45.891Z,-2.60
2019-02-04T19:02:13.932Z,-2.60
2019-02-04T19:04:41.982Z,-2.50
2019-02-04T19:07:10.168Z,-2.50
2019-02-04T19:09:38.253Z,-2.50
2019-02-04T19:12:06.685Z,-2.50
2019-02-04T19:14:35.211Z,-2.50
2019-02-04T19:17:03.161Z,-2.50
2019-02-04T19:19:31.175Z,-2.50
2019-02-04T19:21:59.418Z,-2.40
2019-02-04T19:24:27.458Z,-2.40
2019-02-04T19:26:55.648Z,-2.40
2019-02-04T19:29:23.746Z,-2.40
2019-02-04T19:31:51.667Z,-2.40
2019-02-04T19:34:19.739Z,-2.40
2019-02-04T19:36:47.781Z,-2.40
2019-02-04T19:39:15.834Z,-2.40
2019-02-04T19:41:43.824Z,-2.40
2019-02-04T19:44:11.994Z,-2.40
2019-02-04T19:46:40.343Z,-2.40
2019-02-04T19:49:08.384Z,-2.40
2019-02-04T19:51:36.440Z,-2.40
2019-02-04T19:54:04.843Z,-2.40
2019-02-04T19:56:32.859Z,-2.30
2019-02-04T19:59:01.019Z,-2.30
2019-02-04T20:01:29.052Z,-2.30
2019-02-04T20:03:57.377Z,-2.30
2019-02-04T20:06:25.456Z,-2.30
2019-02-04T20:08:53.605Z,-2.30
2019-02-04T20:11:21.617Z,-2.30
2019-02-04T20:13:49.444Z,-2.30
2019-02-04T20:16:17.880Z,-2.20
2019-02-04T20:18:45.814Z,-2.20
2019-02-04T20:21:13.955Z,-2.20
2019-02-04T20:23:42.024Z,-2.20
2019-02-04T20:26:10.143Z,-2.20
2019-02-04T20:28:38.404Z,-2.10
2019-02-04T20:31:06.538Z,-2.20
2019-02-04T20:33:34.585Z,-2.10
2019-02-04T20:36:02.641Z,-2.10
2019-02-04T20:38:30.652Z,-2.10
2019-02-04T20:40:58.813Z,-2.10
2019-02-04T20:43:26.831Z,-2.00
2019-02-04T20:45:54.877Z,-2.00
2019-02-04T20:48:23.000Z,-2.00
2019-02-04T20:50:51.152Z,-1.90
2019-02-04T20:53:19.405Z,-1.90
2019-02-04T20:55:47.524Z,-1.90
2019-02-04T20:58:15.585Z,-1.90
2019-02-04T21:00:43.947Z,-1.90
2019-02-04T21:03:12.052Z,-1.90
2019-02-04T21:05:40.071Z,-1.80
2019-02-04T21:08:08.200Z,-1.80
2019-02-04T21:10:36.565Z,-1.80
2019-02-04T21:13:04.841Z,-1.80
2019-02-04T21:15:32.977Z,-1.90
2019-02-04T21:18:01.002Z,-1.80
2019-02-04T21:20:29.533Z,-1.90
2019-02-04T21:22:57.872Z,-1.80
2019-02-04T21:25:25.887Z,-1.80
2019-02-04T21:27:53.951Z,-1.80
2019-02-04T21:30:27.119Z,-1.70
2019-02-04T21:32:55.362Z,-1.70
2019-02-04T21:35:23.387Z,-1.60
2019-02-04T21:37:51.523Z,-1.60
2019-02-04T21:40:20.168Z,-1.60
2019-02-04T21:42:49.211Z,-1.50
2019-02-04T21:45:18.648Z,-1.50
2019-02-04T21:47:46.649Z,-1.50
2019-02-04T21:50:17.019Z,-1.50
2019-02-04T21:52:45.131Z,-1.40
2019-02-04T21:55:13.771Z,-1.40
2019-02-04T21:57:42.046Z,-1.40
2019-02-04T22:00:13.752Z,-1.40
2019-02-04T22:02:41.676Z,-1.30
2019-02-04T22:05:11.172Z,-1.30
2019-02-04T22:07:39.429Z,-1.20
2019-02-04T22:10:11.951Z,-1.30
2019-02-04T22:12:39.927Z,-1.30
2019-02-04T22:15:08.424Z,-1.20
2019-02-04T22:17:36.479Z,-1.20
2019-02-04T22:20:05.464Z,-1.20
2019-02-04T22:22:34.234Z,-1.10
2019-02-04T22:25:02.296Z,-1.10
2019-02-04T22:27:30.839Z,-1.10
2019-02-04T22:29:59.112Z,-1.00
2019-02-04T22:32:27.737Z,-1.00
2019-02-04T22:34:56.083Z,-1.00
2019-02-04T22:37:24.213Z,-1.00
2019-02-04T22:39:52.216Z,-1.00
2019-02-04T22:42:20.359Z,-1.00
2019-02-04T22:44:48.404Z,-1.00
2019-02-04T22:47:16.763Z,-1.00
2019-02-04T22:49:44.795Z,-1.00
2019-02-04T22:52:12.950Z,-0.90
2019-02-04T22:54:40.983Z,-0.90
2019-02-04T22:57:09.011Z,-0.90
2019-02-04T22:59:37.200Z,-0.90
2019-02-04T23:02:05.747Z,-0.90
2019-02-04T23:04:33.872Z,-0.90
2019-02-04T23:07:02.405Z,-0.90
2019-02-04T23:09:30.348Z,-0.90
2019-02-04T23:11:58.362Z,-0.80
2019-02-04T23:14:26.564Z,-0.80
2019-02-04T23:16:54.643Z,-0.80
2019-02-04T23:19:22.860Z,-0.80
2019-02-04T23:21:51.040Z,-0.80
2019-02-04T23:24:19.061Z,-0.70
2019-02-04T23:26:47.204Z,-0.70
2019-02-04T23:29:15.126Z,-0.70
2019-02-04T23:31:43.274Z,-0.70
2019-02-04T23:34:11.897Z,-0.70
2019-02-04T23:36:40.069Z,-0.70
2019-02-04T23:39:09.304Z,-0.70
2019-02-04T23:41:37.238Z,-0.60
2019-02-04T23:44:05.500Z,-0.60
2019-02-04T23:46:33.527Z,-0.60
2019-02-04T23:49:01.538Z,-0.70
2019-02-04T23:51:29.711Z,-0.60
2019-02-04T23:53:57.756Z,-0.60
2019-02-04T23:56:25.683Z,-0.60
2019-02-04T23:58:53.615Z,-0.60
